Time;durP1;ratioP1;P1;durP2;ratioP2;P2;SDS_P1;SDS_P2;PMS_P1;PMS_P2;Temp;Humidity;BMP_temperature;BMP_pressure;BME280_temperature;BME280_humidity;BME280_pressure;Samples;Min_cycle;Max_cycle;Signal;HPM_P1;HPM_P2
2022/12/11 00:00:00;;;;;;;3.00;2.33;;;10.50;96.30;;;;;;6277400;22;20030;-75
2022/12/11 00:02:27;;;;;;;3.28;2.42;;;10.50;96.30;;;;;;6277167;22;20019;-75
2022/12/11 00:04:53;;;;;;;3.50;2.40;;;10.50;96.30;;;;;;6250257;22;20445;-75
2022/12/11 00:07:19;;;;;;;2.85;2.20;;;10.50;96.20;;;;;;6249215;22;20008;-75
2022/12/11 00:09:45;;;;;;;3.63;2.45;;;10.60;96.20;;;;;;6277397;22;20004;-75
2022/12/11 00:12:10;;;;;;;3.42;2.40;;;10.50;96.10;;;;;;6276656;22;20325;-75
2022/12/11 00:14:36;;;;;;;3.15;2.08;;;10.60;96.10;;;;;;6249624;22;20054;-75
2022/12/11 00:17:02;;;;;;;3.67;2.33;;;10.60;96.10;;;;;;6276857;22;20050;-76
2022/12/11 00:19:27;;;;;;;3.85;2.67;;;10.60;96.20;;;;;;6277099;22;19995;-75
2022/12/11 00:21:53;;;;;;;3.83;2.30;;;10.60;96.10;;;;;;6276905;22;20011;-75
2022/12/11 00:24:19;;;;;;;2.97;2.10;;;10.60;96.10;;;;;;6276539;22;20096;-76
2022/12/11 00:26:45;;;;;;;2.75;2.00;;;10.60;95.90;;;;;;6276503;22;20010;-76
2022/12/11 00:29:13;;;;;;;3.30;2.17;;;10.60;96.00;;;;;;6276904;22;20003;-76
2022/12/11 00:31:40;;;;;;;3.92;2.53;;;10.60;96.00;;;;;;6276354;22;20053;-76
2022/12/11 00:34:07;;;;;;;2.30;1.90;;;10.60;95.70;;;;;;6249755;22;20007;-76
2022/12/11 00:36:33;;;;;;;3.42;2.20;;;10.70;95.80;;;;;;6276193;22;20020;-76
2022/12/11 00:39:00;;;;;;;3.28;1.77;;;10.60;95.80;;;;;;6276442;22;20314;-76
2022/12/11 00:41:26;;;;;;;2.78;1.92;;;10.60;95.80;;;;;;6273368;22;20003;-76
2022/12/11 00:43:52;;;;;;;2.55;2.08;;;10.60;95.90;;;;;;6273610;22;20003;-77
2022/12/11 00:46:18;;;;;;;4.15;2.13;;;10.60;95.80;;;;;;6276460;22;20010;-77
2022/12/11 00:48:45;;;;;;;1.73;1.40;;;10.60;95.90;;;;;;6275576;22;20429;-76
2022/12/11 00:51:11;;;;;;;2.22;1.77;;;10.60;95.90;;;;;;6276618;22;20007;-76
2022/12/11 00:53:38;;;;;;;3.08;1.75;;;10.70;95.80;;;;;;6275412;22;20027;-76
2022/12/11 00:56:16;;;;;;;2.65;2.10;;;10.70;95.70;;;;;;6276663;22;20071;-76
2022/12/11 00:58:42;;;;;;;2.97;1.92;;;10.70;95.50;;;;;;6276513;22;20319;-76
2022/12/11 01:01:20;;;;;;;2.88;1.80;;;10.70;95.70;;;;;;6276470;22;20004;-76
2022/12/11 01:03:46;;;;;;;2.20;2.00;;;10.70;95.60;;;;;;6249577;22;20379;-76
2022/12/11 01:06:14;;;;;;;4.03;2.20;;;10.60;95.50;;;;;;6248995;22;20370;-76
2022/12/11 01:08:41;;;;;;;2.30;1.83;;;10.60;95.50;;;;;;6276215;22;20075;-77
2022/12/11 01:11:09;;;;;;;5.40;2.28;;;10.60;95.70;;;;;;6276076;22;20422;-77
2022/12/11 01:13:36;;;;;;;3.10;2.28;;;10.60;95.70;;;;;;6276549;22;20033;-76
2022/12/11 01:16:13;;;;;;;2.17;1.75;;;10.60;95.60;;;;;;6276075;22;20023;-78
2022/12/11 01:18:39;;;;;;;2.92;2.00;;;10.60;95.70;;;;;;6277016;22;20024;-77
2022/12/11 01:21:12;;;;;;;3.28;2.20;;;10.60;95.80;;;;;;6276128;22;20016;-76
2022/12/11 01:23:38;;;;;;;2.80;1.90;;;10.60;95.80;;;;;;6275166;22;20672;-75
2022/12/11 01:26:12;;;;;;;3.65;2.20;;;10.60;95.80;;;;;;6275402;22;20434;-76
2022/12/11 01:28:39;;;;;;;3.25;2.40;;;10.60;95.80;;;;;;6275971;22;20003;-75
2022/12/11 01:31:12;;;;;;;3.70;2.10;;;10.60;95.90;;;;;;6276135;22;20008;-76
2022/12/11 01:33:38;;;;;;;2.60;2.03;;;10.60;96.00;;;;;;6275762;22;20469;-75
2022/12/11 01:36:10;;;;;;;2.83;2.17;;;10.60;96.00;;;;;;6275901;22;20000;-75
2022/12/11 01:38:36;;;;;;;2.33;2.10;;;10.60;96.00;;;;;;6275438;22;20004;-75
2022/12/11 01:41:02;;;;;;;2.30;2.10;;;10.60;96.10;;;;;;6276066;22;20027;-75
2022/12/11 01:43:28;;;;;;;3.58;2.22;;;;;;;;;;6275778;22;20002;-75
2022/12/11 01:45:54;;;;;;;3.05;2.42;;;10.60;95.90;;;;;;6275902;22;20004;-75
2022/12/11 01:48:24;;;;;;;3.00;2.22;;;10.60;96.10;;;;;;6275482;22;20000;-76
2022/12/11 01:50:51;;;;;;;3.50;2.58;;;10.60;96.00;;;;;;6275326;22;20070;-76
2022/12/11 01:53:22;;;;;;;2.90;2.22;;;10.60;96.00;;;;;;6275533;22;20004;-76
2022/12/11 01:55:50;;;;;;;3.70;2.53;;;10.60;96.30;;;;;;6248155;22;20007;-76
2022/12/11 01:58:19;;;;;;;3.22;2.40;;;10.60;96.10;;;;;;6274753;22;19999;-76
2022/12/11 02:00:45;;;;;;;3.28;2.45;;;10.60;96.10;;;;;;6276644;22;20003;-76
2022/12/11 02:03:11;;;;;;;3.95;3.20;;;10.60;96.10;;;;;;6276221;22;20011;-76
2022/12/11 02:05:37;;;;;;;3.60;2.50;;;10.60;96.00;;;;;;6275495;22;20046;-77
2022/12/11 02:08:04;;;;;;;4.28;3.42;;;10.50;96.30;;;;;;6275413;22;20003;-76
2022/12/11 02:11:05;;;;;;;3.92;2.55;;;10.50;96.30;;;;;;6275410;22;20035;-77
2022/12/11 02:13:43;;;;;;;3.00;2.63;;;10.50;96.10;;;;;;6275529;22;19999;-75
2022/12/11 02:16:25;;;;;;;2.90;2.55;;;10.50;96.40;;;;;;6275019;22;20501;-75
2022/12/11 02:18:59;;;;;;;3.80;2.70;;;10.40;96.40;;;;;;6275290;22;19999;-76
2022/12/11 02:21:30;;;;;;;8.32;2.83;;;10.40;96.50;;;;;;6275557;22;20020;-75
2022/12/11 02:24:17;;;;;;;3.58;2.75;;;10.40;96.50;;;;;;6275630;22;20058;-75
2022/12/11 02:27:10;;;;;;;3.22;2.67;;;10.50;96.40;;;;;;6275257;22;20004;-76
2022/12/11 02:29:51;;;;;;;3.17;2.78;;;10.50;96.50;;;;;;6275911;22;20057;-76
2022/12/11 02:32:43;;;;;;;5.47;3.63;;;10.50;96.60;;;;;;6275168;22;20336;-76
2022/12/11 02:35:40;;;;;;;3.15;2.65;;;10.40;96.40;;;;;;6248270;22;20010;-76
2022/12/11 02:38:16;;;;;;;3.95;3.00;;;10.40;96.60;;;;;;6246124;22;20035;-76
2022/12/11 02:40:43;;;;;;;3.13;2.60;;;10.40;96.50;;;;;;6275495;22;20008;-76
2022/12/11 02:43:12;;;;;;;4.15;2.22;;;10.40;96.60;;;;;;6275225;22;20000;-76
2022/12/11 02:45:40;;;;;;;3.83;2.88;;;10.30;96.60;;;;;;6275947;22;20395;-76
2022/12/11 02:48:08;;;;;;;3.15;1.85;;;10.30;96.70;;;;;;6275652;22;20008;-76
2022/12/11 02:50:38;;;;;;;3.33;2.22;;;10.20;96.60;;;;;;6274346;22;20034;-76
2022/12/11 02:53:07;;;;;;;2.58;2.30;;;10.20;96.60;;;;;;6275525;22;20003;-76
2022/12/11 02:55:35;;;;;;;2.40;1.92;;;10.30;96.60;;;;;;6275472;22;20326;-76
2022/12/11 02:58:24;;;;;;;3.15;2.25;;;10.30;96.50;;;;;;6275001;22;20006;-76
2022/12/11 03:00:50;;;;;;;3.25;2.10;;;10.30;96.30;;;;;;6275531;22;20410;-76
2022/12/11 03:03:16;;;;;;;3.10;2.47;;;10.20;96.50;;;;;;6275473;22;20003;-76
2022/12/11 03:05:42;;;;;;;2.75;2.25;;;10.10;96.60;;;;;;6248503;22;20011;-76
2022/12/11 03:08:08;;;;;;;3.35;2.28;;;10.10;96.60;;;;;;6275237;22;20004;-76
2022/12/11 03:10:33;;;;;;;2.80;2.15;;;10.10;96.70;;;;;;6275063;22;20003;-76
2022/12/11 03:12:59;;;;;;;2.92;2.25;;;10.10;96.60;;;;;;6275252;22;20500;-76
2022/12/11 03:15:40;;;;;;;2.70;1.98;;;10.10;96.60;;;;;;6275860;22;20019;-76
2022/12/11 03:18:21;;;;;;;2.45;2.10;;;10.20;96.60;;;;;;6248301;22;20053;-75
2022/12/11 03:21:05;;;;;;;4.30;2.08;;;10.20;96.50;;;;;;6276218;22;20349;-74
2022/12/11 03:23:53;;;;;;;2.67;2.20;;;10.10;96.60;;;;;;6276668;22;20003;-74
2022/12/11 03:26:21;;;;;;;3.60;2.42;;;10.10;96.60;;;;;;6277068;22;20004;-75
2022/12/11 03:28:53;;;;;;;5.53;2.60;;;10.10;96.60;;;;;;6276817;22;20330;-75
2022/12/11 03:31:55;;;;;;;3.42;2.78;;;10.10;96.60;;;;;;6277498;22;20411;-75
2022/12/11 03:34:31;;;;;;;4.82;2.70;;;10.10;96.70;;;;;;6218699;22;20000;-76
2022/12/11 03:36:58;;;;;;;4.45;2.85;;;10.10;96.70;;;;;;6277201;22;20307;-75
2022/12/11 03:39:38;;;;;;;3.85;2.90;;;9.90;96.90;;;;;;6277420;22;20059;-75
2022/12/11 03:42:08;;;;;;;2.42;2.22;;;9.90;97.00;;;;;;6276029;22;20422;-75
2022/12/11 03:44:35;;;;;;;3.75;2.92;;;9.90;96.80;;;;;;6277114;22;20656;-75
2022/12/11 03:47:05;;;;;;;3.72;3.28;;;9.90;97.10;;;;;;6276936;22;20003;-75
2022/12/11 03:49:37;;;;;;;5.95;2.67;;;9.90;96.90;;;;;;6277149;22;20003;-75
2022/12/11 03:52:05;;;;;;;2.88;2.38;;;10.00;97.00;;;;;;6277147;22;20007;-76
2022/12/11 03:54:32;;;;;;;5.03;3.25;;;9.90;96.90;;;;;;6277560;22;19999;-75
2022/12/11 03:57:00;;;;;;;4.82;3.63;;;9.90;97.10;;;;;;6249596;22;20000;-75
2022/12/11 03:59:26;;;;;;;3.20;2.70;;;9.90;97.30;;;;;;6276925;22;20000;-75
2022/12/11 04:01:52;;;;;;;4.15;3.45;;;9.90;97.20;;;;;;6249968;22;20011;-75
2022/12/11 04:04:17;;;;;;;5.00;3.40;;;9.80;97.10;;;;;;6277317;22;20083;-75
2022/12/11 04:06:43;;;;;;;4.05;2.90;;;9.70;97.10;;;;;;6277329;22;20004;-76
2022/12/11 04:09:09;;;;;;;3.47;2.60;;;9.80;97.50;;;;;;6249861;22;20003;-76
2022/12/11 04:11:35;;;;;;;3.72;2.95;;;9.80;97.40;;;;;;6276949;22;20079;-76
2022/12/11 04:16:47;;;;;;;4.22;2.97;;;9.90;97.00;;;;;;6277721;22;20449;-76
2022/12/11 04:24:42;;;;;;;3.67;2.45;;;;;;;;;;6277292;22;20334;-76
2022/12/11 04:27:08;;;;;;;3.45;2.38;;;10.00;96.60;;;;;;6276902;22;20003;-76
2022/12/11 04:29:33;;;;;;;4.07;2.60;;;10.10;96.80;;;;;;6276520;22;20004;-76
2022/12/11 04:31:59;;;;;;;2.40;2.20;;;10.10;96.70;;;;;;6276683;22;20026;-76
2022/12/11 04:34:25;;;;;;;2.72;2.53;;;10.10;96.70;;;;;;6276773;22;20027;-77
2022/12/11 04:36:50;;;;;;;3.25;2.17;;;10.10;96.60;;;;;;6277048;22;19996;-78
2022/12/11 04:39:16;;;;;;;2.10;1.90;;;10.20;96.70;;;;;;6277023;22;20061;-78
2022/12/11 04:41:42;;;;;;;2.67;1.75;;;10.20;96.70;;;;;;6276276;22;20054;-77
2022/12/11 04:44:08;;;;;;;3.92;2.50;;;10.20;96.70;;;;;;6277189;22;20026;-78
2022/12/11 04:46:34;;;;;;;2.88;1.98;;;10.20;96.30;;;;;;6249358;22;20026;-77
2022/12/11 04:49:00;;;;;;;2.08;1.60;;;10.20;96.40;;;;;;6276277;22;20073;-77
2022/12/11 04:51:27;;;;;;;1.88;1.45;;;10.20;96.40;;;;;;6276753;22;20004;-77
2022/12/11 04:53:53;;;;;;;1.02;0.98;;;10.20;96.30;;;;;;6276297;22;19999;-77
2022/12/11 04:56:19;;;;;;;1.58;1.38;;;10.20;96.20;;;;;;6248587;22;20300;-77
2022/12/11 04:58:47;;;;;;;2.30;1.30;;;10.20;95.80;;;;;;6276336;22;20079;-77
2022/12/11 05:01:21;;;;;;;2.25;1.42;;;10.20;95.60;;;;;;6249898;22;20023;-76
2022/12/11 05:03:47;;;;;;;2.20;1.42;;;9.90;95.60;;;;;;6276084;22;20011;-76
2022/12/11 05:06:13;;;;;;;1.55;1.10;;;9.90;95.90;;;;;;6276813;22;20004;-76
2022/12/11 05:08:40;;;;;;;1.85;1.25;;;9.70;95.60;;;;;;6276112;22;20003;-77
2022/12/11 05:11:09;;;;;;;1.30;1.10;;;9.70;96.10;;;;;;6276599;22;20011;-76
2022/12/11 05:13:35;;;;;;;1.77;0.90;;;9.70;96.20;;;;;;6276734;22;20018;-76
2022/12/11 05:16:04;;;;;;;2.05;0.88;;;9.70;96.20;;;;;;6276437;22;20322;-77
2022/12/11 05:18:30;;;;;;;2.00;0.93;;;9.70;96.10;;;;;;6275108;22;20046;-77
2022/12/11 05:21:07;;;;;;;1.10;0.88;;;9.70;96.10;;;;;;6275502;22;20027;-77
2022/12/11 05:23:34;;;;;;;0.93;0.80;;;9.70;95.90;;;;;;6276467;22;20082;-77
2022/12/11 05:26:02;;;;;;;0.90;0.80;;;9.70;96.10;;;;;;6276226;22;20004;-76
2022/12/11 05:28:31;;;;;;;1.10;0.75;;;9.60;96.20;;;;;;6276026;22;20010;-76
2022/12/11 05:31:03;;;;;;;0.70;0.60;;;9.70;96.20;;;;;;6275857;22;20065;-76
2022/12/11 05:33:29;;;;;;;0.32;0.30;;;9.80;96.00;;;;;;6275879;22;20075;-75
2022/12/11 05:35:55;;;;;;;0.75;0.68;;;9.80;95.80;;;;;;6276310;22;19999;-76
2022/12/11 05:38:21;;;;;;;1.80;0.85;;;9.90;96.10;;;;;;6276508;22;20378;-76
2022/12/11 05:40:57;;;;;;;1.30;1.00;;;9.90;96.10;;;;;;6276202;22;20008;-76
2022/12/11 05:43:23;;;;;;;1.55;0.77;;;9.90;96.00;;;;;;6276027;22;20004;-76
2022/12/11 05:45:49;;;;;;;1.00;0.90;;;10.00;96.10;;;;;;6276006;22;20011;-76
2022/12/11 05:48:15;;;;;;;0.85;0.70;;;9.90;95.90;;;;;;6275807;22;20000;-77
2022/12/11 05:50:41;;;;;;;0.98;0.80;;;9.90;96.00;;;;;;6275757;22;20075;-77
2022/12/11 05:53:06;;;;;;;1.60;0.90;;;10.00;96.10;;;;;;6248334;22;20008;-76
2022/12/11 05:55:35;;;;;;;1.20;1.10;;;10.00;96.00;;;;;;6275803;22;20010;-76
2022/12/11 05:58:01;;;;;;;1.55;1.27;;;10.00;95.70;;;;;;6275799;22;20023;-76
2022/12/11 06:00:27;;;;;;;4.22;1.38;;;9.90;96.00;;;;;;6275264;22;19996;-76
2022/12/11 06:02:52;;;;;;;2.25;1.40;;;9.80;95.90;;;;;;6275347;22;20000;-76
2022/12/11 06:05:18;;;;;;;1.95;1.45;;;9.60;96.10;;;;;;6275041;22;20000;-76
2022/12/11 06:07:44;;;;;;;1.70;1.10;;;9.60;96.40;;;;;;6275657;22;20003;-76
2022/12/11 06:10:10;;;;;;;2.45;1.40;;;9.60;96.50;;;;;;6275797;22;20000;-76
2022/12/11 06:12:35;;;;;;;1.33;1.10;;;9.50;96.40;;;;;;6275583;22;20007;-76
2022/12/11 06:15:01;;;;;;;1.80;1.20;;;9.50;96.60;;;;;;6275819;22;20357;-77
2022/12/11 06:17:27;;;;;;;2.75;1.20;;;9.40;96.50;;;;;;6275642;22;19995;-76
2022/12/11 06:19:52;;;;;;;2.28;1.42;;;9.50;96.50;;;;;;6275684;22;20054;-76
2022/12/11 06:22:18;;;;;;;1.40;1.10;;;9.60;96.10;;;;;;6275967;22;20046;-77
2022/12/11 06:24:45;;;;;;;1.08;0.95;;;9.60;96.20;;;;;;6275679;22;20481;-77
2022/12/11 06:27:10;;;;;;;2.00;1.10;;;9.60;95.60;;;;;;6275427;22;20003;-77
2022/12/11 06:29:36;;;;;;;2.15;1.60;;;9.60;95.80;;;;;;6275634;22;20030;-76
2022/12/11 06:32:02;;;;;;;1.30;1.00;;;9.40;96.00;;;;;;6275167;22;20015;-75
2022/12/11 06:34:28;;;;;;;1.67;0.82;;;9.40;95.90;;;;;;6275331;22;20390;-76
2022/12/11 06:36:53;;;;;;;1.35;1.05;;;9.30;96.10;;;;;;6275978;22;20006;-74
2022/12/11 06:39:19;;;;;;;2.78;0.90;;;9.30;95.90;;;;;;6276235;22;20358;-75
2022/12/11 06:41:45;;;;;;;1.33;1.05;;;9.30;96.10;;;;;;6276022;22;20067;-74
2022/12/11 06:44:10;;;;;;;1.55;0.93;;;9.40;96.00;;;;;;6275588;22;20007;-74
2022/12/11 06:46:36;;;;;;;1.42;1.00;;;9.30;95.60;;;;;;6274832;22;20346;-74
2022/12/11 06:49:01;;;;;;;0.90;0.80;;;9.30;95.70;;;;;;6275796;22;20399;-74
2022/12/11 06:51:27;;;;;;;1.08;0.85;;;9.30;95.60;;;;;;6275533;22;20410;-74
2022/12/11 06:53:55;;;;;;;1.50;1.00;;;9.30;95.50;;;;;;6275722;22;20000;-74
2022/12/11 06:56:22;;;;;;;1.70;0.95;;;9.30;95.50;;;;;;6276119;22;20080;-75
2022/12/11 06:58:48;;;;;;;2.00;1.13;;;9.30;95.50;;;;;;6277697;22;20023;-77
2022/12/11 07:01:25;;;;;;;1.27;0.90;;;9.30;95.10;;;;;;6249786;22;20011;-76
2022/12/11 07:07:13;;;;;;;2.10;1.42;;;9.40;94.80;;;;;;6272635;22;20081;-76
2022/12/11 07:09:39;;;;;;;1.20;1.10;;;9.30;94.40;;;;;;6277768;22;19999;-76
2022/12/11 07:12:06;;;;;;;0.98;0.88;;;9.30;94.60;;;;;;6276418;22;20430;-76
2022/12/11 07:14:32;;;;;;;1.38;1.17;;;9.30;94.70;;;;;;6250246;22;20000;-76
2022/12/11 07:16:58;;;;;;;1.50;1.00;;;;;;;;;;6277331;22;20065;-77
2022/12/11 07:19:24;;;;;;;0.65;0.65;;;9.20;94.50;;;;;;6250885;22;20038;-77
2022/12/11 07:21:50;;;;;;;0.85;0.80;;;9.20;94.70;;;;;;6276991;22;20016;-76
2022/12/11 07:24:17;;;;;;;0.63;0.63;;;9.30;94.80;;;;;;6277441;22;20019;-76
2022/12/11 07:26:42;;;;;;;1.25;0.88;;;9.30;94.50;;;;;;6248759;22;20007;-76
2022/12/11 07:29:08;;;;;;;1.13;0.75;;;9.10;93.90;;;;;;6277669;22;20000;-86
2022/12/11 07:31:34;;;;;;;1.02;0.73;;;9.00;94.00;;;;;;6277261;22;20377;-85
2022/12/11 07:34:03;;;;;;;0.43;0.43;;;9.10;93.50;;;;;;6276409;22;20000;-84
2022/12/11 07:36:29;;;;;;;0.60;0.57;;;9.10;93.80;;;;;;6247647;22;20035;-84
2022/12/11 07:38:55;;;;;;;0.73;0.60;;;9.10;93.30;;;;;;6275719;22;20420;-84
2022/12/11 07:41:22;;;;;;;0.65;0.60;;;9.10;93.60;;;;;;6276416;22;20314;-84
2022/12/11 07:43:48;;;;;;;0.90;0.68;;;9.10;93.10;;;;;;6275947;22;20065;-83
2022/12/11 07:46:16;;;;;;;0.50;0.50;;;9.10;93.40;;;;;;6276888;22;20007;-83
2022/12/11 07:48:44;;;;;;;0.80;0.68;;;9.20;93.70;;;;;;6276554;22;20018;-85
2022/12/11 07:51:18;;;;;;;0.68;0.57;;;9.20;93.50;;;;;;6276247;22;20000;-83
2022/12/11 07:53:46;;;;;;;0.70;0.70;;;9.30;93.50;;;;;;6276605;22;20027;-81
2022/12/11 07:56:12;;;;;;;1.55;0.77;;;9.40;93.30;;;;;;6276839;22;19996;-80
2022/12/11 07:58:38;;;;;;;0.90;0.70;;;9.40;93.20;;;;;;6275929;22;20411;-81
2022/12/11 08:01:05;;;;;;;1.10;0.80;;;9.40;93.00;;;;;;6275108;22;20000;-78
2022/12/11 08:03:30;;;;;;;1.27;0.75;;;9.10;92.50;;;;;;6276348;22;20023;-80
2022/12/11 08:05:56;;;;;;;0.60;0.60;;;9.10;92.80;;;;;;6277260;22;20012;-81
2022/12/11 08:08:22;;;;;;;2.17;0.80;;;9.20;93.00;;;;;;6276887;22;20000;-81
2022/12/11 08:10:48;;;;;;;0.63;0.55;;;9.20;93.20;;;;;;6276164;22;20441;-80
2022/12/11 08:13:14;;;;;;;1.45;0.80;;;9.20;92.90;;;;;;6273788;22;20026;-75
2022/12/11 08:15:39;;;;;;;1.45;0.70;;;9.20;92.70;;;;;;6249046;22;20000;-76
2022/12/11 08:18:05;;;;;;;1.63;0.60;;;9.20;92.90;;;;;;6275615;22;20007;-79
2022/12/11 08:20:31;;;;;;;0.88;0.80;;;9.20;92.70;;;;;;6276526;22;20069;-76
2022/12/11 08:22:57;;;;;;;0.60;0.60;;;9.20;92.80;;;;;;6276709;22;20045;-75
2022/12/11 08:25:23;;;;;;;0.43;0.43;;;9.20;92.60;;;;;;6276975;22;20000;-75
2022/12/11 08:27:49;;;;;;;1.08;0.75;;;9.20;92.60;;;;;;6247745;22;20004;-76
2022/12/11 08:30:14;;;;;;;0.65;0.63;;;9.10;92.60;;;;;;6276123;22;20003;-75
2022/12/11 08:32:40;;;;;;;1.60;1.00;;;9.00;92.40;;;;;;6277204;22;20003;-76
2022/12/11 08:35:06;;;;;;;1.02;0.80;;;8.90;92.90;;;;;;6276963;22;20003;-75
2022/12/11 08:37:35;;;;;;;0.65;0.52;;;8.90;93.00;;;;;;6277009;22;20074;-75
2022/12/11 08:40:01;;;;;;;1.00;0.77;;;8.80;93.10;;;;;;6277082;22;20000;-75
2022/12/11 08:42:27;;;;;;;0.95;0.60;;;8.90;93.20;;;;;;6277015;22;20031;-75
2022/12/11 08:44:52;;;;;;;1.10;0.77;;;8.80;93.20;;;;;;6276481;22;20004;-75
2022/12/11 08:47:18;;;;;;;1.27;0.65;;;8.90;93.30;;;;;;6277419;22;20006;-76
2022/12/11 08:49:44;;;;;;;1.10;0.60;;;8.80;93.40;;;;;;6276949;22;20079;-76
2022/12/11 08:52:09;;;;;;;1.10;0.80;;;8.80;93.40;;;;;;6277083;22;20000;-76
2022/12/11 08:54:38;;;;;;;1.38;0.93;;;8.90;93.50;;;;;;6277030;22;20000;-76
2022/12/11 08:57:04;;;;;;;0.70;0.70;;;8.90;93.30;;;;;;6276891;22;20000;-76
2022/12/11 08:59:30;;;;;;;1.13;0.80;;;8.80;93.50;;;;;;6276719;22;20067;-76
2022/12/11 09:01:55;;;;;;;0.60;0.60;;;8.70;93.20;;;;;;6276775;22;19999;-78
2022/12/11 09:04:22;;;;;;;1.10;0.85;;;8.80;93.60;;;;;;6277120;22;20003;-82
2022/12/11 09:06:47;;;;;;;0.77;0.70;;;8.80;93.50;;;;;;6276769;22;20007;-82
2022/12/11 09:09:13;;;;;;;0.95;0.65;;;8.60;93.20;;;;;;6276123;22;20003;-82
2022/12/11 09:11:39;;;;;;;0.70;0.70;;;8.60;93.60;;;;;;6249250;22;20008;-82
2022/12/11 09:14:06;;;;;;;1.30;0.60;;;8.60;93.90;;;;;;6275877;22;20322;-82
2022/12/11 09:16:33;;;;;;;0.90;0.80;;;8.70;93.70;;;;;;6276579;22;20007;-82
2022/12/11 09:18:59;;;;;;;1.50;0.90;;;8.70;93.00;;;;;;6275995;22;20310;-81
2022/12/11 09:21:27;;;;;;;1.08;0.60;;;8.70;93.10;;;;;;6246085;22;20084;-81
2022/12/11 09:23:55;;;;;;;0.80;0.65;;;8.70;93.60;;;;;;6275352;22;20493;-80
2022/12/11 09:26:22;;;;;;;1.08;0.98;;;8.70;93.20;;;;;;6274972;22;20003;-79
2022/12/11 09:28:50;;;;;;;0.82;0.50;;;8.60;93.40;;;;;;6274021;22;20003;-77
2022/12/11 09:31:24;;;;;;;1.02;0.90;;;8.60;93.10;;;;;;6274120;22;20015;-76
2022/12/11 09:33:53;;;;;;;0.93;0.80;;;8.60;93.10;;;;;;6275136;22;20006;-76
2022/12/11 09:36:19;;;;;;;0.80;0.65;;;8.60;93.30;;;;;;6275398;22;20000;-76
2022/12/11 09:38:45;;;;;;;0.35;0.35;;;8.60;92.90;;;;;;6275467;22;20050;-76
2022/12/11 09:41:20;;;;;;;0.90;0.60;;;8.70;92.90;;;;;;6275960;22;20004;-75
2022/12/11 09:44:23;;;;;;;0.85;0.70;;;8.70;93.10;;;;;;6275792;22;20434;-76
2022/12/11 09:46:50;;;;;;;0.80;0.80;;;8.70;92.20;;;;;;6248541;22;20022;-75
2022/12/11 09:49:26;;;;;;;0.73;0.52;;;8.70;92.90;;;;;;6247997;22;20053;-75
2022/12/11 09:52:04;;;;;;;0.88;0.75;;;8.80;92.70;;;;;;6275885;22;20000;-78
2022/12/11 09:54:31;;;;;;;0.73;0.70;;;8.80;92.50;;;;;;6274747;22;20307;-78
2022/12/11 09:57:24;;;;;;;0.93;0.90;;;8.80;92.70;;;;;;6276444;22;20006;-76
2022/12/11 10:00:28;;;;;;;0.80;0.80;;;8.60;92.30;;;;;;6276539;22;20076;-78
2022/12/11 10:03:07;;;;;;;1.25;0.75;;;8.60;92.60;;;;;;6123004;23;20077;-80
2022/12/11 10:05:37;;;;;;;0.82;0.63;;;;;;;;;;6234340;22;20023;-80
2022/12/11 10:08:44;;;;;;;0.70;0.67;;;8.50;92.60;;;;;;6276063;22;19999;-80
2022/12/11 10:11:21;;;;;;;1.98;0.73;;;8.50;92.60;;;;;;6243489;22;20315;-75
2022/12/11 10:14:12;;;;;;;0.50;0.50;;;8.50;92.80;;;;;;6275652;22;20041;-75
2022/12/11 10:16:44;;;;;;;1.25;0.70;;;8.50;92.80;;;;;;6275857;22;19995;-74
2022/12/11 10:19:24;;;;;;;0.60;0.50;;;8.50;93.00;;;;;;6274901;22;20067;-78
2022/12/11 10:21:51;;;;;;;0.63;0.60;;;8.50;92.70;;;;;;6274371;22;20021;-78
2022/12/11 10:24:26;;;;;;;1.05;0.85;;;8.50;92.70;;;;;;6274284;22;20071;-74
2022/12/11 10:26:58;;;;;;;1.00;0.60;;;8.50;92.80;;;;;;6276066;22;20004;-80
2022/12/11 10:29:24;;;;;;;1.17;0.80;;;8.60;92.60;;;;;;6275594;22;19999;-76
2022/12/11 10:31:57;;;;;;;1.00;0.73;;;8.60;92.80;;;;;;6248946;22;20007;-75
2022/12/11 10:34:35;;;;;;;0.93;0.60;;;8.30;92.70;;;;;;6243185;22;20018;-79
2022/12/11 10:37:01;;;;;;;0.60;0.60;;;8.30;92.70;;;;;;6248725;22;20000;-75
2022/12/11 10:39:28;;;;;;;0.68;0.68;;;8.30;92.60;;;;;;6275409;22;20074;-76
2022/12/11 10:41:55;;;;;;;1.55;0.75;;;;;;;;;;6280679;22;20003;-77
2022/12/11 10:44:26;;;;;;;0.85;0.85;;;8.30;92.30;;;;;;6274268;22;20436;-77
2022/12/11 10:47:13;;;;;;;2.25;1.20;;;8.30;92.50;;;;;;6273844;22;20004;-77
2022/12/11 10:49:57;;;;;;;3.70;1.20;;;8.30;92.40;;;;;;6274650;22;20434;-76
2022/12/11 10:52:34;;;;;;;0.77;0.60;;;8.30;92.40;;;;;;6275315;22;20049;-74
2022/12/11 10:55:16;;;;;;;1.15;0.75;;;8.10;92.60;;;;;;6275880;22;20329;-75
2022/12/11 10:57:42;;;;;;;1.90;1.10;;;8.00;92.60;;;;;;6275393;22;20003;-75
2022/12/11 11:00:29;;;;;;;1.50;1.00;;;8.00;92.80;;;;;;6274575;22;20004;-77
2022/12/11 11:02:55;;;;;;;2.33;0.88;;;8.10;92.80;;;;;;6275252;22;20484;-78
2022/12/11 11:05:33;;;;;;;1.15;1.00;;;8.20;92.80;;;;;;6276023;22;20014;-80
2022/12/11 11:08:22;;;;;;;2.45;0.98;;;8.00;92.70;;;;;;6275647;22;20061;-75
2022/12/11 11:10:56;;;;;;;1.25;0.70;;;8.00;93.00;;;;;;6254590;22;20004;-76
2022/12/11 11:13:25;;;;;;;1.23;1.02;;;8.00;92.90;;;;;;6273217;22;20006;-75
2022/12/11 11:16:04;;;;;;;1.00;0.60;;;8.10;93.10;;;;;;6273942;22;20003;-77
2022/12/11 11:18:30;;;;;;;1.20;1.02;;;8.00;93.20;;;;;;6275011;22;20009;-75
2022/12/11 11:20:57;;;;;;;1.40;0.90;;;8.00;93.30;;;;;;6275195;22;20008;-80
2022/12/11 11:23:24;;;;;;;1.10;0.82;;;8.10;93.30;;;;;;6275571;22;20000;-78
2022/12/11 11:25:55;;;;;;;0.82;0.82;;;7.90;93.10;;;;;;6274017;22;20449;-79
2022/12/11 11:28:45;;;;;;;1.20;1.00;;;7.80;93.00;;;;;;6248463;22;20007;-77
2022/12/11 11:31:13;;;;;;;1.58;0.70;;;7.80;93.20;;;;;;6275058;22;20007;-78
2022/12/11 11:34:02;;;;;;;2.47;1.10;;;7.80;92.80;;;;;;6248373;22;20091;-78
2022/12/11 11:36:30;;;;;;;1.17;0.70;;;7.90;92.90;;;;;;6275964;22;20366;-77
2022/12/11 11:39:21;;;;;;;1.73;1.00;;;7.90;92.90;;;;;;6274843;22;20006;-78
2022/12/11 11:41:56;;;;;;;1.70;0.90;;;7.90;92.90;;;;;;6248552;22;20022;-76
2022/12/11 11:44:35;;;;;;;1.15;1.02;;;7.80;93.00;;;;;;6276909;22;19999;-76
2022/12/11 11:47:21;;;;;;;1.17;0.93;;;7.80;93.20;;;;;;6276833;22;20414;-75
2022/12/11 11:50:02;;;;;;;1.67;0.70;;;7.70;93.30;;;;;;6276267;22;20233;-75
2022/12/11 11:52:46;;;;;;;1.00;0.63;;;7.80;93.10;;;;;;6277431;22;20000;-74
2022/12/11 11:55:41;;;;;;;1.27;0.90;;;7.80;93.20;;;;;;6249854;22;20034;-74
2022/12/11 11:58:18;;;;;;;1.88;1.23;;;7.80;93.00;;;;;;6277801;22;20004;-75
2022/12/11 12:00:44;;;;;;;3.10;1.50;;;7.80;93.10;;;;;;6250100;22;20010;-78
2022/12/11 12:03:18;;;;;;;2.55;1.30;;;8.00;92.90;;;;;;6274360;22;20000;-78
2022/12/11 12:05:55;;;;;;;3.10;1.08;;;8.00;92.80;;;;;;6274892;22;19995;-79
2022/12/11 12:08:41;;;;;;;1.40;1.20;;;8.00;92.80;;;;;;6249008;22;20000;-76
2022/12/11 12:11:31;;;;;;;2.00;1.35;;;8.00;93.00;;;;;;6247550;22;20008;-76
2022/12/11 12:13:59;;;;;;;1.02;0.93;;;8.10;92.60;;;;;;6273981;22;20327;-78
2022/12/11 12:16:46;;;;;;;2.38;1.30;;;8.10;92.70;;;;;;6276041;22;20011;-79
2022/12/11 12:19:34;;;;;;;1.45;1.25;;;8.20;92.80;;;;;;6275140;22;20639;-75
2022/12/11 12:22:13;;;;;;;1.45;1.17;;;8.10;92.50;;;;;;6275303;22;20098;-78
2022/12/11 12:24:44;;;;;;;0.75;0.75;;;8.10;92.80;;;;;;6275985;22;20625;-77
2022/12/11 12:27:20;;;;;;;1.17;0.98;;;8.10;93.00;;;;;;6276599;22;20022;-77
2022/12/11 12:30:03;;;;;;;1.52;1.00;;;8.20;92.60;;;;;;6276777;22;20000;-76
2022/12/11 12:32:42;;;;;;;1.80;1.10;;;8.30;92.80;;;;;;6276178;22;20011;-77
2022/12/11 12:35:23;;;;;;;0.67;0.67;;;8.30;92.40;;;;;;6276767;22;19995;-78
2022/12/11 12:37:57;;;;;;;0.85;0.75;;;8.20;91.80;;;;;;6276570;22;20007;-77
2022/12/11 12:40:39;;;;;;;2.08;0.93;;;8.10;92.60;;;;;;6249693;22;20004;-78
2022/12/11 12:43:50;;;;;;;1.38;1.08;;;8.10;92.10;;;;;;6276021;22;20015;-78
2022/12/11 12:46:25;;;;;;;1.38;1.20;;;8.00;92.10;;;;;;6181612;22;20004;-77
2022/12/11 12:48:53;;;;;;;1.77;1.15;;;8.00;92.40;;;;;;6275982;22;20053;-77
2022/12/11 12:51:20;;;;;;;1.20;1.08;;;8.10;92.40;;;;;;6275469;22;20000;-78
2022/12/11 12:54:14;;;;;;;1.30;0.93;;;8.10;92.50;;;;;;6275743;22;20158;-78
2022/12/11 12:56:42;;;;;;;1.00;0.90;;;8.20;92.60;;;;;;6272248;22;20049;-78
2022/12/11 12:59:27;;;;;;;1.20;1.08;;;8.20;92.40;;;;;;6276281;22;20026;-78
2022/12/11 13:01:57;;;;;;;1.33;1.10;;;8.20;92.20;;;;;;6276359;22;19999;-80
2022/12/11 13:04:33;;;;;;;1.52;1.02;;;8.20;92.50;;;;;;6275727;22;20030;-78
2022/12/11 13:07:15;;;;;;;1.90;1.30;;;8.20;92.30;;;;;;6276300;22;20314;-77
2022/12/11 13:09:41;;;;;;;1.70;1.10;;;8.20;92.10;;;;;;6276660;22;20034;-87
2022/12/11 13:12:14;;;;;;;1.52;1.20;;;8.10;92.20;;;;;;6275946;22;20065;-77
2022/12/11 13:14:40;;;;;;;1.90;1.05;;;8.10;92.40;;;;;;6275740;22;20007;-77
2022/12/11 13:17:36;;;;;;;1.20;1.08;;;8.00;92.10;;;;;;6276063;22;20000;-78
2022/12/11 13:20:18;;;;;;;2.03;1.08;;;8.10;92.50;;;;;;6248900;22;20015;-80
2022/12/11 13:23:09;;;;;;;1.25;1.10;;;8.00;92.40;;;;;;6275642;22;20031;-79
2022/12/11 13:25:50;;;;;;;1.10;1.00;;;7.90;92.30;;;;;;6247866;22;20321;-83